sensor_id;sensor_type;location;lat;lon;timestamp;P1;durP1;ratioP1;P2;durP2;ratioP2
33152;SDS011;19509;43.862;26.176;2022-11-14T00:00:25;37.07;;;9.50;;
33152;SDS011;19509;43.862;26.176;2022-11-14T00:02:51;37.60;;;8.90;;
33152;SDS011;19509;43.862;26.176;2022-11-14T00:05:17;55.07;;;7.90;;
33152;SDS011;19509;43.862;26.176;2022-11-14T00:07:43;60.27;;;8.53;;
33152;SDS011;19509;43.862;26.176;2022-11-14T00:10:09;57.00;;;7.30;;
33152;SDS011;19509;43.862;26.176;2022-11-14T00:12:35;35.83;;;6.50;;
33152;SDS011;19509;43.862;26.176;2022-11-14T00:15:00;62.60;;;11.30;;
33152;SDS011;19509;43.862;26.176;2022-11-14T00:17:26;77.70;;;15.23;;
33152;SDS011;19509;43.862;26.176;2022-11-14T00:19:51;45.73;;;7.70;;
33152;SDS011;19509;43.862;26.176;2022-11-14T00:22:16;96.83;;;16.03;;
33152;SDS011;19509;43.862;26.176;2022-11-14T00:24:42;106.73;;;20.40;;
33152;SDS011;19509;43.862;26.176;2022-11-14T00:27:07;68.03;;;11.00;;
33152;SDS011;19509;43.862;26.176;2022-11-14T00:29:33;44.03;;;9.53;;
33152;SDS011;19509;43.862;26.176;2022-11-14T00:31:58;43.27;;;11.10;;
33152;SDS011;19509;43.862;26.176;2022-11-14T00:34:23;48.03;;;11.10;;
33152;SDS011;19509;43.862;26.176;2022-11-14T00:36:49;30.37;;;9.07;;
33152;SDS011;19509;43.862;26.176;2022-11-14T00:39:14;26.63;;;6.50;;
33152;SDS011;19509;43.862;26.176;2022-11-14T00:41:40;20.70;;;5.87;;
33152;SDS011;19509;43.862;26.176;2022-11-14T00:44:06;18.33;;;4.70;;
33152;SDS011;19509;43.862;26.176;2022-11-14T00:46:32;15.07;;;5.10;;
33152;SDS011;19509;43.862;26.176;2022-11-14T00:48:58;11.23;;;2.90;;
33152;SDS011;19509;43.862;26.176;2022-11-14T00:51:24;4.37;;;3.30;;
33152;SDS011;19509;43.862;26.176;2022-11-14T00:53:49;11.30;;;3.47;;
33152;SDS011;19509;43.862;26.176;2022-11-14T00:56:15;4.83;;;2.93;;
33152;SDS011;19509;43.862;26.176;2022-11-14T00:58:40;2.90;;;2.70;;
33152;SDS011;19509;43.862;26.176;2022-11-14T01:01:05;2.20;;;2.10;;
33152;SDS011;19509;43.862;26.176;2022-11-14T01:03:31;2.20;;;2.20;;
33152;SDS011;19509;43.862;26.176;2022-11-14T01:05:56;4.00;;;2.67;;
33152;SDS011;19509;43.862;26.176;2022-11-14T01:08:22;18.33;;;4.43;;
33152;SDS011;19509;43.862;26.176;2022-11-14T01:10:48;32.07;;;6.57;;
33152;SDS011;19509;43.862;26.176;2022-11-14T01:13:15;35.57;;;8.07;;
33152;SDS011;19509;43.862;26.176;2022-11-14T01:15:46;28.83;;;7.53;;
33152;SDS011;19509;43.862;26.176;2022-11-14T01:18:17;18.17;;;5.10;;
33152;SDS011;19509;43.862;26.176;2022-11-14T01:20:45;14.20;;;4.93;;
33152;SDS011;19509;43.862;26.176;2022-11-14T01:23:12;21.83;;;4.73;;
33152;SDS011;19509;43.862;26.176;2022-11-14T01:25:39;2.10;;;2.07;;
33152;SDS011;19509;43.862;26.176;2022-11-14T01:28:06;1.63;;;1.63;;
33152;SDS011;19509;43.862;26.176;2022-11-14T01:30:41;1.87;;;1.87;;
33152;SDS011;19509;43.862;26.176;2022-11-14T01:33:07;1.70;;;1.70;;
33152;SDS011;19509;43.862;26.176;2022-11-14T01:35:33;1.83;;;1.73;;
33152;SDS011;19509;43.862;26.176;2022-11-14T01:38:00;1.60;;;1.60;;
33152;SDS011;19509;43.862;26.176;2022-11-14T01:40:27;3.33;;;2.13;;
33152;SDS011;19509;43.862;26.176;2022-11-14T01:45:53;2.40;;;2.30;;
33152;SDS011;19509;43.862;26.176;2022-11-14T01:48:27;3.60;;;2.40;;
33152;SDS011;19509;43.862;26.176;2022-11-14T01:51:12;2.97;;;2.77;;
33152;SDS011;19509;43.862;26.176;2022-11-14T01:53:45;4.87;;;2.63;;
33152;SDS011;19509;43.862;26.176;2022-11-14T01:56:14;4.70;;;2.90;;
33152;SDS011;19509;43.862;26.176;2022-11-14T01:58:44;5.23;;;2.93;;
33152;SDS011;19509;43.862;26.176;2022-11-14T02:01:13;14.03;;;4.00;;
33152;SDS011;19509;43.862;26.176;2022-11-14T02:03:39;10.13;;;3.90;;
33152;SDS011;19509;43.862;26.176;2022-11-14T02:06:08;24.93;;;5.03;;
33152;SDS011;19509;43.862;26.176;2022-11-14T02:08:37;14.27;;;4.00;;
33152;SDS011;19509;43.862;26.176;2022-11-14T02:11:03;36.47;;;7.10;;
33152;SDS011;19509;43.862;26.176;2022-11-14T02:13:29;23.80;;;6.70;;
33152;SDS011;19509;43.862;26.176;2022-11-14T02:15:54;31.60;;;6.10;;
33152;SDS011;19509;43.862;26.176;2022-11-14T02:18:20;47.80;;;7.10;;
33152;SDS011;19509;43.862;26.176;2022-11-14T02:20:45;53.63;;;8.37;;
33152;SDS011;19509;43.862;26.176;2022-11-14T02:23:11;53.87;;;10.57;;
33152;SDS011;19509;43.862;26.176;2022-11-14T02:25:37;65.57;;;13.40;;
33152;SDS011;19509;43.862;26.176;2022-11-14T02:28:03;62.07;;;12.77;;
33152;SDS011;19509;43.862;26.176;2022-11-14T02:30:31;70.37;;;12.70;;
33152;SDS011;19509;43.862;26.176;2022-11-14T02:32:57;51.93;;;8.10;;
33152;SDS011;19509;43.862;26.176;2022-11-14T02:35:23;74.63;;;14.30;;
33152;SDS011;19509;43.862;26.176;2022-11-14T02:37:48;53.33;;;9.60;;
33152;SDS011;19509;43.862;26.176;2022-11-14T02:40:14;69.07;;;9.60;;
33152;SDS011;19509;43.862;26.176;2022-11-14T02:42:39;52.07;;;9.67;;
33152;SDS011;19509;43.862;26.176;2022-11-14T02:45:05;92.00;;;16.20;;
33152;SDS011;19509;43.862;26.176;2022-11-14T02:47:31;95.20;;;17.30;;
33152;SDS011;19509;43.862;26.176;2022-11-14T02:49:57;78.63;;;15.10;;
33152;SDS011;19509;43.862;26.176;2022-11-14T02:52:22;58.23;;;9.27;;
33152;SDS011;19509;43.862;26.176;2022-11-14T02:54:47;89.40;;;15.63;;
33152;SDS011;19509;43.862;26.176;2022-11-14T02:57:13;84.17;;;15.30;;
33152;SDS011;19509;43.862;26.176;2022-11-14T02:59:38;109.57;;;18.03;;
33152;SDS011;19509;43.862;26.176;2022-11-14T03:02:04;50.83;;;9.33;;
33152;SDS011;19509;43.862;26.176;2022-11-14T03:04:29;71.00;;;11.83;;
33152;SDS011;19509;43.862;26.176;2022-11-14T03:06:54;85.80;;;11.97;;
33152;SDS011;19509;43.862;26.176;2022-11-14T03:09:20;80.87;;;11.33;;
33152;SDS011;19509;43.862;26.176;2022-11-14T03:11:45;76.70;;;13.17;;
33152;SDS011;19509;43.862;26.176;2022-11-14T03:14:11;99.03;;;17.80;;
33152;SDS011;19509;43.862;26.176;2022-11-14T03:16:36;104.57;;;17.07;;
33152;SDS011;19509;43.862;26.176;2022-11-14T03:19:01;105.70;;;18.37;;
33152;SDS011;19509;43.862;26.176;2022-11-14T03:21:27;90.93;;;12.97;;
33152;SDS011;19509;43.862;26.176;2022-11-14T03:23:52;98.20;;;13.83;;
33152;SDS011;19509;43.862;26.176;2022-11-14T03:26:18;92.60;;;16.50;;
33152;SDS011;19509;43.862;26.176;2022-11-14T03:28:43;99.93;;;15.10;;
33152;SDS011;19509;43.862;26.176;2022-11-14T03:31:09;79.13;;;14.97;;
33152;SDS011;19509;43.862;26.176;2022-11-14T03:33:36;117.83;;;19.00;;
33152;SDS011;19509;43.862;26.176;2022-11-14T03:36:02;93.20;;;14.40;;
33152;SDS011;19509;43.862;26.176;2022-11-14T03:38:29;69.33;;;13.77;;
33152;SDS011;19509;43.862;26.176;2022-11-14T03:40:56;99.57;;;13.60;;
33152;SDS011;19509;43.862;26.176;2022-11-14T03:43:23;83.47;;;13.80;;
33152;SDS011;19509;43.862;26.176;2022-11-14T03:45:49;103.20;;;14.37;;
33152;SDS011;19509;43.862;26.176;2022-11-14T03:48:14;66.17;;;11.27;;
33152;SDS011;19509;43.862;26.176;2022-11-14T03:50:40;57.17;;;8.90;;
33152;SDS011;19509;43.862;26.176;2022-11-14T03:53:07;76.00;;;12.90;;
33152;SDS011;19509;43.862;26.176;2022-11-14T03:55:33;81.63;;;14.40;;
33152;SDS011;19509;43.862;26.176;2022-11-14T03:57:58;149.00;;;18.67;;
33152;SDS011;19509;43.862;26.176;2022-11-14T04:00:24;91.77;;;15.67;;
33152;SDS011;19509;43.862;26.176;2022-11-14T04:02:52;96.47;;;16.60;;
33152;SDS011;19509;43.862;26.176;2022-11-14T04:05:18;91.03;;;14.30;;
33152;SDS011;19509;43.862;26.176;2022-11-14T04:07:44;105.23;;;17.03;;
33152;SDS011;19509;43.862;26.176;2022-11-14T04:10:09;81.67;;;14.93;;
33152;SDS011;19509;43.862;26.176;2022-11-14T04:12:34;83.80;;;16.50;;
33152;SDS011;19509;43.862;26.176;2022-11-14T04:15:00;121.80;;;20.27;;
33152;SDS011;19509;43.862;26.176;2022-11-14T04:17:25;101.60;;;15.57;;
33152;SDS011;19509;43.862;26.176;2022-11-14T04:19:51;74.10;;;15.37;;
33152;SDS011;19509;43.862;26.176;2022-11-14T04:22:16;91.30;;;15.80;;
33152;SDS011;19509;43.862;26.176;2022-11-14T04:24:41;113.60;;;18.73;;
33152;SDS011;19509;43.862;26.176;2022-11-14T04:27:07;70.70;;;12.50;;
33152;SDS011;19509;43.862;26.176;2022-11-14T04:29:32;121.07;;;18.37;;
33152;SDS011;19509;43.862;26.176;2022-11-14T04:31:58;45.17;;;8.00;;
33152;SDS011;19509;43.862;26.176;2022-11-14T04:34:23;44.60;;;7.90;;
33152;SDS011;19509;43.862;26.176;2022-11-14T04:36:48;67.97;;;12.70;;
33152;SDS011;19509;43.862;26.176;2022-11-14T04:39:17;96.73;;;16.00;;
33152;SDS011;19509;43.862;26.176;2022-11-14T04:41:42;66.60;;;11.97;;
33152;SDS011;19509;43.862;26.176;2022-11-14T04:44:08;30.30;;;7.40;;
33152;SDS011;19509;43.862;26.176;2022-11-14T04:46:33;71.13;;;15.10;;
33152;SDS011;19509;43.862;26.176;2022-11-14T04:48:59;84.13;;;15.20;;
33152;SDS011;19509;43.862;26.176;2022-11-14T04:51:24;41.93;;;9.27;;
33152;SDS011;19509;43.862;26.176;2022-11-14T04:53:49;69.33;;;9.87;;
33152;SDS011;19509;43.862;26.176;2022-11-14T04:56:15;85.87;;;15.70;;
33152;SDS011;19509;43.862;26.176;2022-11-14T04:58:40;40.90;;;7.97;;
33152;SDS011;19509;43.862;26.176;2022-11-14T05:01:07;49.50;;;11.00;;
33152;SDS011;19509;43.862;26.176;2022-11-14T05:03:33;26.17;;;6.60;;
33152;SDS011;19509;43.862;26.176;2022-11-14T05:05:59;44.10;;;10.40;;
33152;SDS011;19509;43.862;26.176;2022-11-14T05:08:25;32.13;;;9.83;;
33152;SDS011;19509;43.862;26.176;2022-11-14T05:10:51;54.67;;;12.80;;
33152;SDS011;19509;43.862;26.176;2022-11-14T05:13:16;51.00;;;13.47;;
33152;SDS011;19509;43.862;26.176;2022-11-14T05:15:41;28.27;;;7.57;;
33152;SDS011;19509;43.862;26.176;2022-11-14T05:18:07;25.90;;;7.43;;
33152;SDS011;19509;43.862;26.176;2022-11-14T05:20:32;30.43;;;8.20;;
33152;SDS011;19509;43.862;26.176;2022-11-14T05:22:58;52.27;;;12.03;;
33152;SDS011;19509;43.862;26.176;2022-11-14T05:25:23;33.63;;;10.57;;
33152;SDS011;19509;43.862;26.176;2022-11-14T05:27:49;40.40;;;12.73;;
33152;SDS011;19509;43.862;26.176;2022-11-14T05:30:14;20.33;;;8.60;;
33152;SDS011;19509;43.862;26.176;2022-11-14T05:32:40;31.33;;;9.60;;
33152;SDS011;19509;43.862;26.176;2022-11-14T05:35:05;17.87;;;6.80;;
33152;SDS011;19509;43.862;26.176;2022-11-14T05:37:32;28.90;;;7.67;;
33152;SDS011;19509;43.862;26.176;2022-11-14T05:39:58;77.97;;;16.20;;
33152;SDS011;19509;43.862;26.176;2022-11-14T05:42:23;79.23;;;17.37;;
33152;SDS011;19509;43.862;26.176;2022-11-14T05:44:49;45.13;;;10.13;;
33152;SDS011;19509;43.862;26.176;2022-11-14T05:47:14;58.67;;;14.90;;
33152;SDS011;19509;43.862;26.176;2022-11-14T05:49:40;67.10;;;14.20;;
33152;SDS011;19509;43.862;26.176;2022-11-14T05:52:05;45.57;;;10.80;;
33152;SDS011;19509;43.862;26.176;2022-11-14T05:54:31;18.80;;;6.00;;
33152;SDS011;19509;43.862;26.176;2022-11-14T05:56:56;38.80;;;8.93;;
33152;SDS011;19509;43.862;26.176;2022-11-14T05:59:21;31.60;;;8.10;;
33152;SDS011;19509;43.862;26.176;2022-11-14T06:01:47;34.23;;;8.73;;
33152;SDS011;19509;43.862;26.176;2022-11-14T06:04:12;28.83;;;7.13;;
33152;SDS011;19509;43.862;26.176;2022-11-14T06:06:39;58.90;;;14.30;;
33152;SDS011;19509;43.862;26.176;2022-11-14T06:09:04;101.20;;;18.27;;
33152;SDS011;19509;43.862;26.176;2022-11-14T06:11:30;27.27;;;8.03;;
33152;SDS011;19509;43.862;26.176;2022-11-14T06:13:55;40.70;;;10.47;;
33152;SDS011;19509;43.862;26.176;2022-11-14T06:16:21;48.93;;;9.47;;
33152;SDS011;19509;43.862;26.176;2022-11-14T06:18:46;54.10;;;11.33;;
33152;SDS011;19509;43.862;26.176;2022-11-14T06:21:13;43.90;;;9.77;;
33152;SDS011;19509;43.862;26.176;2022-11-14T06:23:43;37.70;;;8.20;;
33152;SDS011;19509;43.862;26.176;2022-11-14T06:26:12;35.53;;;9.83;;
33152;SDS011;19509;43.862;26.176;2022-11-14T06:28:44;19.60;;;7.27;;
33152;SDS011;19509;43.862;26.176;2022-11-14T06:31:10;57.30;;;12.43;;
33152;SDS011;19509;43.862;26.176;2022-11-14T06:33:36;41.93;;;10.30;;
33152;SDS011;19509;43.862;26.176;2022-11-14T06:36:03;41.20;;;10.57;;
33152;SDS011;19509;43.862;26.176;2022-11-14T06:38:30;19.40;;;7.67;;
33152;SDS011;19509;43.862;26.176;2022-11-14T06:41:30;27.73;;;7.80;;
33152;SDS011;19509;43.862;26.176;2022-11-14T06:43:49;20.80;;;7.80;;
33152;SDS011;19509;43.862;26.176;2022-11-14T06:46:18;16.80;;;6.13;;
33152;SDS011;19509;43.862;26.176;2022-11-14T06:48:45;14.13;;;5.67;;
33152;SDS011;19509;43.862;26.176;2022-11-14T06:51:12;20.03;;;7.33;;
33152;SDS011;19509;43.862;26.176;2022-11-14T06:53:39;12.97;;;6.40;;
33152;SDS011;19509;43.862;26.176;2022-11-14T06:56:05;24.13;;;7.53;;
33152;SDS011;19509;43.862;26.176;2022-11-14T06:58:32;27.13;;;9.83;;
33152;SDS011;19509;43.862;26.176;2022-11-14T07:01:06;4.57;;;4.17;;
33152;SDS011;19509;43.862;26.176;2022-11-14T07:03:34;12.37;;;6.60;;
33152;SDS011;19509;43.862;26.176;2022-11-14T07:06:00;33.50;;;10.10;;
33152;SDS011;19509;43.862;26.176;2022-11-14T07:08:26;37.30;;;12.03;;
33152;SDS011;19509;43.862;26.176;2022-11-14T07:10:52;12.90;;;5.67;;
33152;SDS011;19509;43.862;26.176;2022-11-14T07:13:17;13.47;;;5.90;;
33152;SDS011;19509;43.862;26.176;2022-11-14T07:15:49;4.40;;;4.20;;
33152;SDS011;19509;43.862;26.176;2022-11-14T07:18:16;8.67;;;5.50;;
33152;SDS011;19509;43.862;26.176;2022-11-14T07:20:41;3.90;;;3.70;;
33152;SDS011;19509;43.862;26.176;2022-11-14T07:23:07;3.60;;;3.50;;
33152;SDS011;19509;43.862;26.176;2022-11-14T07:25:32;3.20;;;3.10;;
33152;SDS011;19509;43.862;26.176;2022-11-14T07:27:57;3.20;;;3.10;;
33152;SDS011;19509;43.862;26.176;2022-11-14T07:30:23;2.80;;;2.70;;
33152;SDS011;19509;43.862;26.176;2022-11-14T07:32:57;3.67;;;3.47;;
33152;SDS011;19509;43.862;26.176;2022-11-14T07:35:23;3.97;;;3.73;;
33152;SDS011;19509;43.862;26.176;2022-11-14T07:37:49;3.43;;;3.33;;
33152;SDS011;19509;43.862;26.176;2022-11-14T07:40:15;3.27;;;3.17;;
33152;SDS011;19509;43.862;26.176;2022-11-14T07:42:41;3.17;;;3.07;;
33152;SDS011;19509;43.862;26.176;2022-11-14T07:45:06;3.50;;;3.40;;
33152;SDS011;19509;43.862;26.176;2022-11-14T07:47:32;3.00;;;2.90;;
33152;SDS011;19509;43.862;26.176;2022-11-14T07:49:58;2.60;;;2.50;;
33152;SDS011;19509;43.862;26.176;2022-11-14T07:52:23;2.70;;;2.60;;
33152;SDS011;19509;43.862;26.176;2022-11-14T07:54:49;2.37;;;2.37;;
33152;SDS011;19509;43.862;26.176;2022-11-14T07:57:14;2.60;;;2.50;;
33152;SDS011;19509;43.862;26.176;2022-11-14T07:59:39;2.90;;;2.83;;
33152;SDS011;19509;43.862;26.176;2022-11-14T08:02:05;2.63;;;2.63;;
33152;SDS011;19509;43.862;26.176;2022-11-14T08:04:30;2.40;;;2.40;;
33152;SDS011;19509;43.862;26.176;2022-11-14T08:06:56;2.20;;;2.20;;
33152;SDS011;19509;43.862;26.176;2022-11-14T08:09:21;2.47;;;2.47;;
33152;SDS011;19509;43.862;26.176;2022-11-14T08:11:47;2.40;;;2.40;;
33152;SDS011;19509;43.862;26.176;2022-11-14T08:14:13;2.90;;;2.80;;
33152;SDS011;19509;43.862;26.176;2022-11-14T08:16:39;2.63;;;2.63;;
33152;SDS011;19509;43.862;26.176;2022-11-14T08:19:05;2.70;;;2.60;;
33152;SDS011;19509;43.862;26.176;2022-11-14T08:21:30;2.63;;;2.63;;
33152;SDS011;19509;43.862;26.176;2022-11-14T08:23:56;2.80;;;2.80;;
33152;SDS011;19509;43.862;26.176;2022-11-14T08:26:21;2.80;;;2.70;;
33152;SDS011;19509;43.862;26.176;2022-11-14T08:28:47;3.00;;;2.90;;
33152;SDS011;19509;43.862;26.176;2022-11-14T08:31:12;3.70;;;3.60;;
33152;SDS011;19509;43.862;26.176;2022-11-14T08:33:38;3.20;;;3.10;;
33152;SDS011;19509;43.862;26.176;2022-11-14T08:36:04;3.10;;;3.00;;
33152;SDS011;19509;43.862;26.176;2022-11-14T08:38:31;3.50;;;3.40;;
33152;SDS011;19509;43.862;26.176;2022-11-14T08:41:01;3.50;;;3.40;;
33152;SDS011;19509;43.862;26.176;2022-11-14T08:43:27;3.37;;;3.27;;
33152;SDS011;19509;43.862;26.176;2022-11-14T08:45:55;3.23;;;3.13;;
33152;SDS011;19509;43.862;26.176;2022-11-14T08:48:22;3.37;;;3.27;;
33152;SDS011;19509;43.862;26.176;2022-11-14T08:50:47;3.00;;;2.93;;
33152;SDS011;19509;43.862;26.176;2022-11-14T08:53:13;3.33;;;3.23;;
33152;SDS011;19509;43.862;26.176;2022-11-14T08:55:42;3.50;;;3.40;;
33152;SDS011;19509;43.862;26.176;2022-11-14T08:58:10;3.53;;;3.43;;
33152;SDS011;19509;43.862;26.176;2022-11-14T09:00:36;3.17;;;3.07;;
33152;SDS011;19509;43.862;26.176;2022-11-14T09:03:08;3.17;;;3.07;;
33152;SDS011;19509;43.862;26.176;2022-11-14T09:05:34;3.30;;;3.20;;
33152;SDS011;19509;43.862;26.176;2022-11-14T09:08:01;3.10;;;3.00;;
33152;SDS011;19509;43.862;26.176;2022-11-14T09:10:27;3.33;;;3.23;;
33152;SDS011;19509;43.862;26.176;2022-11-14T09:12:56;3.20;;;3.10;;
33152;SDS011;19509;43.862;26.176;2022-11-14T09:15:22;3.20;;;3.10;;
33152;SDS011;19509;43.862;26.176;2022-11-14T09:17:47;3.17;;;3.07;;
33152;SDS011;19509;43.862;26.176;2022-11-14T09:20:17;3.30;;;3.20;;
33152;SDS011;19509;43.862;26.176;2022-11-14T09:22:43;3.53;;;3.43;;
33152;SDS011;19509;43.862;26.176;2022-11-14T09:25:09;3.20;;;3.10;;
33152;SDS011;19509;43.862;26.176;2022-11-14T09:27:35;3.03;;;2.93;;
33152;SDS011;19509;43.862;26.176;2022-11-14T09:30:00;3.37;;;3.27;;
33152;SDS011;19509;43.862;26.176;2022-11-14T09:32:25;3.70;;;3.60;;
33152;SDS011;19509;43.862;26.176;2022-11-14T09:34:51;3.23;;;3.13;;
33152;SDS011;19509;43.862;26.176;2022-11-14T09:37:16;3.20;;;3.10;;
33152;SDS011;19509;43.862;26.176;2022-11-14T09:39:42;3.33;;;3.23;;
33152;SDS011;19509;43.862;26.176;2022-11-14T09:44:55;3.50;;;3.40;;
33152;SDS011;19509;43.862;26.176;2022-11-14T09:47:24;3.00;;;2.90;;
33152;SDS011;19509;43.862;26.176;2022-11-14T09:50:13;3.33;;;3.23;;
33152;SDS011;19509;43.862;26.176;2022-11-14T09:52:45;3.30;;;3.20;;
33152;SDS011;19509;43.862;26.176;2022-11-14T09:55:18;3.07;;;2.97;;
33152;SDS011;19509;43.862;26.176;2022-11-14T09:57:46;2.67;;;2.67;;
33152;SDS011;19509;43.862;26.176;2022-11-14T10:00:13;3.07;;;2.97;;
33152;SDS011;19509;43.862;26.176;2022-11-14T10:02:53;2.70;;;2.70;;
33152;SDS011;19509;43.862;26.176;2022-11-14T10:08:05;2.50;;;2.50;;
33152;SDS011;19509;43.862;26.176;2022-11-14T10:13:25;3.00;;;2.90;;
33152;SDS011;19509;43.862;26.176;2022-11-14T10:21:45;3.43;;;3.33;;
33152;SDS011;19509;43.862;26.176;2022-11-14T10:35:16;2.60;;;2.60;;
33152;SDS011;19509;43.862;26.176;2022-11-14T10:38:02;2.70;;;2.70;;
33152;SDS011;19509;43.862;26.176;2022-11-14T10:40:55;2.60;;;2.60;;
33152;SDS011;19509;43.862;26.176;2022-11-14T10:43:32;2.70;;;2.70;;
33152;SDS011;19509;43.862;26.176;2022-11-14T10:49:20;2.50;;;2.50;;
33152;SDS011;19509;43.862;26.176;2022-11-14T10:51:53;2.80;;;2.70;;
33152;SDS011;19509;43.862;26.176;2022-11-14T10:57:15;2.80;;;2.80;;
33152;SDS011;19509;43.862;26.176;2022-11-14T10:59:42;2.73;;;2.63;;
33152;SDS011;19509;43.862;26.176;2022-11-14T11:02:08;2.70;;;2.70;;
33152;SDS011;19509;43.862;26.176;2022-11-14T11:04:35;2.90;;;2.87;;
33152;SDS011;19509;43.862;26.176;2022-11-14T11:09:34;2.73;;;2.70;;
33152;SDS011;19509;43.862;26.176;2022-11-14T11:12:22;2.70;;;2.70;;
33152;SDS011;19509;43.862;26.176;2022-11-14T11:15:12;2.70;;;2.70;;
33152;SDS011;19509;43.862;26.176;2022-11-14T11:17:53;2.87;;;2.80;;
33152;SDS011;19509;43.862;26.176;2022-11-14T11:20:25;2.40;;;2.40;;
33152;SDS011;19509;43.862;26.176;2022-11-14T11:23:36;2.80;;;2.80;;
33152;SDS011;19509;43.862;26.176;2022-11-14T11:25:57;2.67;;;2.67;;
33152;SDS011;19509;43.862;26.176;2022-11-14T11:28:25;3.00;;;2.90;;
33152;SDS011;19509;43.862;26.176;2022-11-14T11:30:56;2.60;;;2.60;;
33152;SDS011;19509;43.862;26.176;2022-11-14T11:33:25;2.77;;;2.67;;
33152;SDS011;19509;43.862;26.176;2022-11-14T11:35:55;3.03;;;2.93;;
33152;SDS011;19509;43.862;26.176;2022-11-14T11:38:29;3.10;;;3.00;;
33152;SDS011;19509;43.862;26.176;2022-11-14T11:41:06;2.83;;;2.83;;
33152;SDS011;19509;43.862;26.176;2022-11-14T11:43:49;2.60;;;2.60;;
33152;SDS011;19509;43.862;26.176;2022-11-14T11:46:22;3.30;;;3.20;;
33152;SDS011;19509;43.862;26.176;2022-11-14T11:48:50;3.20;;;3.10;;
33152;SDS011;19509;43.862;26.176;2022-11-14T11:51:21;2.80;;;2.80;;
33152;SDS011;19509;43.862;26.176;2022-11-14T11:54:08;2.90;;;2.80;;
33152;SDS011;19509;43.862;26.176;2022-11-14T11:56:39;3.10;;;3.00;;
33152;SDS011;19509;43.862;26.176;2022-11-14T12:02:02;3.07;;;2.97;;
33152;SDS011;19509;43.862;26.176;2022-11-14T12:04:43;3.10;;;3.00;;
33152;SDS011;19509;43.862;26.176;2022-11-14T12:07:13;2.80;;;2.70;;
33152;SDS011;19509;43.862;26.176;2022-11-14T12:09:43;2.73;;;2.73;;
33152;SDS011;19509;43.862;26.176;2022-11-14T12:12:10;2.40;;;2.40;;
33152;SDS011;19509;43.862;26.176;2022-11-14T12:29:31;2.40;;;2.40;;
33152;SDS011;19509;43.862;26.176;2022-11-14T12:31:36;2.37;;;2.37;;
33152;SDS011;19509;43.862;26.176;2022-11-14T12:34:04;3.00;;;2.90;;
33152;SDS011;19509;43.862;26.176;2022-11-14T12:36:40;3.30;;;3.20;;
33152;SDS011;19509;43.862;26.176;2022-11-14T12:39:18;3.03;;;2.93;;
33152;SDS011;19509;43.862;26.176;2022-11-14T12:41:48;2.93;;;2.90;;
33152;SDS011;19509;43.862;26.176;2022-11-14T12:57:48;2.83;;;2.77;;
33152;SDS011;19509;43.862;26.176;2022-11-14T13:00:16;3.10;;;3.00;;
33152;SDS011;19509;43.862;26.176;2022-11-14T13:05:35;2.90;;;2.83;;
33152;SDS011;19509;43.862;26.176;2022-11-14T13:08:29;3.20;;;3.10;;
33152;SDS011;19509;43.862;26.176;2022-11-14T13:14:19;3.20;;;3.10;;
33152;SDS011;19509;43.862;26.176;2022-11-14T13:20:00;2.97;;;2.87;;
33152;SDS011;19509;43.862;26.176;2022-11-14T13:23:31;2.67;;;2.67;;
33152;SDS011;19509;43.862;26.176;2022-11-14T13:33:44;3.20;;;3.10;;
33152;SDS011;19509;43.862;26.176;2022-11-14T13:36:35;3.13;;;3.03;;
33152;SDS011;19509;43.862;26.176;2022-11-14T13:39:13;3.40;;;3.30;;
33152;SDS011;19509;43.862;26.176;2022-11-14T13:49:55;3.17;;;3.07;;
33152;SDS011;19509;43.862;26.176;2022-11-14T13:52:24;3.37;;;3.27;;
33152;SDS011;19509;43.862;26.176;2022-11-14T13:54:54;3.60;;;3.50;;
33152;SDS011;19509;43.862;26.176;2022-11-14T13:57:26;3.77;;;3.67;;
33152;SDS011;19509;43.862;26.176;2022-11-14T14:00:20;3.27;;;3.17;;
33152;SDS011;19509;43.862;26.176;2022-11-14T14:02:50;3.20;;;3.10;;
33152;SDS011;19509;43.862;26.176;2022-11-14T14:09:33;3.50;;;3.40;;
33152;SDS011;19509;43.862;26.176;2022-11-14T14:20:16;3.30;;;3.20;;
33152;SDS011;19509;43.862;26.176;2022-11-14T14:28:01;3.30;;;3.20;;
33152;SDS011;19509;43.862;26.176;2022-11-14T14:31:02;3.40;;;3.30;;
33152;SDS011;19509;43.862;26.176;2022-11-14T14:33:38;3.20;;;3.10;;
33152;SDS011;19509;43.862;26.176;2022-11-14T14:36:14;3.60;;;3.50;;
33152;SDS011;19509;43.862;26.176;2022-11-14T14:38:48;3.43;;;3.33;;
33152;SDS011;19509;43.862;26.176;2022-11-14T14:41:15;3.10;;;3.00;;
33152;SDS011;19509;43.862;26.176;2022-11-14T14:43:43;3.23;;;3.13;;
33152;SDS011;19509;43.862;26.176;2022-11-14T14:46:15;3.03;;;2.93;;
33152;SDS011;19509;43.862;26.176;2022-11-14T14:48:49;3.33;;;3.23;;
33152;SDS011;19509;43.862;26.176;2022-11-14T14:51:16;3.00;;;2.97;;
33152;SDS011;19509;43.862;26.176;2022-11-14T14:53:57;3.30;;;3.20;;
33152;SDS011;19509;43.862;26.176;2022-11-14T14:56:23;3.70;;;3.60;;
33152;SDS011;19509;43.862;26.176;2022-11-14T14:58:49;3.40;;;3.20;;
33152;SDS011;19509;43.862;26.176;2022-11-14T15:01:16;2.80;;;2.80;;
33152;SDS011;19509;43.862;26.176;2022-11-14T15:03:48;2.77;;;2.77;;
33152;SDS011;19509;43.862;26.176;2022-11-14T15:08:44;3.10;;;3.00;;
33152;SDS011;19509;43.862;26.176;2022-11-14T15:11:10;2.80;;;2.70;;
33152;SDS011;19509;43.862;26.176;2022-11-14T15:13:38;3.07;;;2.97;;
33152;SDS011;19509;43.862;26.176;2022-11-14T15:16:06;2.70;;;2.70;;
33152;SDS011;19509;43.862;26.176;2022-11-14T15:18:33;3.10;;;2.90;;
33152;SDS011;19509;43.862;26.176;2022-11-14T15:26:49;3.10;;;3.00;;
33152;SDS011;19509;43.862;26.176;2022-11-14T15:29:25;2.93;;;2.83;;
33152;SDS011;19509;43.862;26.176;2022-11-14T15:31:52;2.60;;;2.50;;
33152;SDS011;19509;43.862;26.176;2022-11-14T15:34:31;2.90;;;2.80;;
33152;SDS011;19509;43.862;26.176;2022-11-14T15:39:40;2.63;;;2.60;;
33152;SDS011;19509;43.862;26.176;2022-11-14T15:42:13;3.13;;;3.03;;
33152;SDS011;19509;43.862;26.176;2022-11-14T15:44:39;3.10;;;3.00;;
33152;SDS011;19509;43.862;26.176;2022-11-14T15:47:16;2.93;;;2.83;;
33152;SDS011;19509;43.862;26.176;2022-11-14T15:49:59;2.73;;;2.70;;
33152;SDS011;19509;43.862;26.176;2022-11-14T15:54:58;3.30;;;3.20;;
33152;SDS011;19509;43.862;26.176;2022-11-14T15:57:24;3.10;;;3.00;;
33152;SDS011;19509;43.862;26.176;2022-11-14T15:59:49;3.03;;;2.93;;
33152;SDS011;19509;43.862;26.176;2022-11-14T16:02:20;3.20;;;3.10;;
33152;SDS011;19509;43.862;26.176;2022-11-14T16:04:47;3.50;;;3.40;;
33152;SDS011;19509;43.862;26.176;2022-11-14T16:07:15;2.97;;;2.87;;
33152;SDS011;19509;43.862;26.176;2022-11-14T16:09:42;3.23;;;3.13;;
33152;SDS011;19509;43.862;26.176;2022-11-14T16:12:07;3.17;;;3.07;;
33152;SDS011;19509;43.862;26.176;2022-11-14T16:14:33;3.10;;;3.00;;
33152;SDS011;19509;43.862;26.176;2022-11-14T16:16:58;3.20;;;3.10;;
33152;SDS011;19509;43.862;26.176;2022-11-14T16:19:24;3.37;;;3.27;;
33152;SDS011;19509;43.862;26.176;2022-11-14T16:21:49;3.10;;;3.00;;
33152;SDS011;19509;43.862;26.176;2022-11-14T16:24:23;3.00;;;2.90;;
33152;SDS011;19509;43.862;26.176;2022-11-14T16:26:49;3.33;;;3.23;;
33152;SDS011;19509;43.862;26.176;2022-11-14T16:29:14;3.20;;;3.10;;
33152;SDS011;19509;43.862;26.176;2022-11-14T16:31:40;3.40;;;3.30;;
33152;SDS011;19509;43.862;26.176;2022-11-14T16:34:06;3.30;;;3.20;;
33152;SDS011;19509;43.862;26.176;2022-11-14T16:36:37;3.00;;;2.90;;